sensor_id;sensor_type;location;lat;lon;timestamp;P1;durP1;ratioP1;P2;durP2;ratioP2
10343;SDS011;5217;43.960;10.954;2023-02-13T00:01:23;16.07;;;14.47;;
10343;SDS011;5217;43.960;10.954;2023-02-13T00:03:52;17.73;;;16.03;;
10343;SDS011;5217;43.960;10.954;2023-02-13T00:06:20;16.80;;;15.30;;
10343;SDS011;5217;43.960;10.954;2023-02-13T00:08:51;18.17;;;16.43;;
10343;SDS011;5217;43.960;10.954;2023-02-13T00:11:20;17.03;;;15.33;;
10343;SDS011;5217;43.960;10.954;2023-02-13T00:13:48;15.90;;;14.40;;
10343;SDS011;5217;43.960;10.954;2023-02-13T00:16:16;16.50;;;14.87;;
10343;SDS011;5217;43.960;10.954;2023-02-13T00:18:44;18.10;;;16.33;;
10343;SDS011;5217;43.960;10.954;2023-02-13T00:21:13;17.17;;;15.43;;
10343;SDS011;5217;43.960;10.954;2023-02-13T00:23:41;17.37;;;15.57;;
10343;SDS011;5217;43.960;10.954;2023-02-13T00:26:12;18.77;;;16.97;;
10343;SDS011;5217;43.960;10.954;2023-02-13T00:28:41;17.20;;;15.50;;
10343;SDS011;5217;43.960;10.954;2023-02-13T00:31:10;17.77;;;16.10;;
10343;SDS011;5217;43.960;10.954;2023-02-13T00:33:40;17.77;;;16.07;;
10343;SDS011;5217;43.960;10.954;2023-02-13T00:36:09;18.93;;;17.03;;
10343;SDS011;5217;43.960;10.954;2023-02-13T00:38:39;19.57;;;17.53;;
10343;SDS011;5217;43.960;10.954;2023-02-13T00:41:08;20.77;;;18.70;;
10343;SDS011;5217;43.960;10.954;2023-02-13T00:43:38;20.40;;;18.33;;
10343;SDS011;5217;43.960;10.954;2023-02-13T00:46:07;19.53;;;17.53;;
10343;SDS011;5217;43.960;10.954;2023-02-13T00:48:36;18.20;;;16.37;;
10343;SDS011;5217;43.960;10.954;2023-02-13T00:51:05;17.03;;;15.27;;
10343;SDS011;5217;43.960;10.954;2023-02-13T00:53:34;16.33;;;14.83;;
10343;SDS011;5217;43.960;10.954;2023-02-13T00:56:04;16.17;;;14.60;;
10343;SDS011;5217;43.960;10.954;2023-02-13T00:58:35;15.70;;;13.60;;
10343;SDS011;5217;43.960;10.954;2023-02-13T01:01:04;13.23;;;12.00;;
10343;SDS011;5217;43.960;10.954;2023-02-13T01:03:32;13.00;;;11.80;;
10343;SDS011;5217;43.960;10.954;2023-02-13T01:06:01;14.50;;;11.57;;
10343;SDS011;5217;43.960;10.954;2023-02-13T01:08:29;11.00;;;9.90;;
10343;SDS011;5217;43.960;10.954;2023-02-13T01:10:57;10.60;;;9.60;;
10343;SDS011;5217;43.960;10.954;2023-02-13T01:13:26;10.50;;;9.40;;
10343;SDS011;5217;43.960;10.954;2023-02-13T01:15:56;10.53;;;9.53;;
10343;SDS011;5217;43.960;10.954;2023-02-13T01:18:24;10.53;;;9.53;;
10343;SDS011;5217;43.960;10.954;2023-02-13T01:20:56;9.83;;;8.83;;
10343;SDS011;5217;43.960;10.954;2023-02-13T01:23:28;10.07;;;9.00;;
10343;SDS011;5217;43.960;10.954;2023-02-13T01:25:57;9.10;;;8.20;;
10343;SDS011;5217;43.960;10.954;2023-02-13T01:28:25;9.10;;;8.23;;
10343;SDS011;5217;43.960;10.954;2023-02-13T01:30:56;9.03;;;7.83;;
10343;SDS011;5217;43.960;10.954;2023-02-13T01:33:26;8.83;;;8.03;;
10343;SDS011;5217;43.960;10.954;2023-02-13T01:35:55;8.10;;;7.30;;
10343;SDS011;5217;43.960;10.954;2023-02-13T01:38:25;7.93;;;7.23;;
10343;SDS011;5217;43.960;10.954;2023-02-13T01:40:54;7.50;;;6.80;;
10343;SDS011;5217;43.960;10.954;2023-02-13T01:43:41;8.10;;;7.30;;
10343;SDS011;5217;43.960;10.954;2023-02-13T01:46:12;9.43;;;8.53;;
10343;SDS011;5217;43.960;10.954;2023-02-13T01:48:45;8.37;;;7.57;;
10343;SDS011;5217;43.960;10.954;2023-02-13T01:51:16;8.57;;;7.77;;
10343;SDS011;5217;43.960;10.954;2023-02-13T01:53:47;9.17;;;8.27;;
10343;SDS011;5217;43.960;10.954;2023-02-13T01:56:21;9.87;;;8.27;;
10343;SDS011;5217;43.960;10.954;2023-02-13T01:58:53;9.70;;;8.77;;
10343;SDS011;5217;43.960;10.954;2023-02-13T02:01:26;9.10;;;8.20;;
10343;SDS011;5217;43.960;10.954;2023-02-13T02:03:58;10.67;;;8.60;;
10343;SDS011;5217;43.960;10.954;2023-02-13T02:06:32;10.57;;;8.57;;
10343;SDS011;5217;43.960;10.954;2023-02-13T02:09:05;8.67;;;7.87;;
10343;SDS011;5217;43.960;10.954;2023-02-13T02:11:41;8.93;;;8.03;;
10343;SDS011;5217;43.960;10.954;2023-02-13T02:14:13;8.63;;;7.83;;
10343;SDS011;5217;43.960;10.954;2023-02-13T02:16:43;8.00;;;7.30;;
10343;SDS011;5217;43.960;10.954;2023-02-13T02:19:13;8.93;;;8.03;;
10343;SDS011;5217;43.960;10.954;2023-02-13T02:31:04;8.90;;;8.10;;
10343;SDS011;5217;43.960;10.954;2023-02-13T02:34:03;9.47;;;8.57;;
10343;SDS011;5217;43.960;10.954;2023-02-13T02:36:48;10.03;;;9.03;;
10343;SDS011;5217;43.960;10.954;2023-02-13T02:39:29;10.93;;;9.83;;
10343;SDS011;5217;43.960;10.954;2023-02-13T02:42:08;10.50;;;9.50;;
10343;SDS011;5217;43.960;10.954;2023-02-13T02:44:47;10.50;;;9.50;;
10343;SDS011;5217;43.960;10.954;2023-02-13T02:47:24;10.63;;;9.63;;
10343;SDS011;5217;43.960;10.954;2023-02-13T02:50:15;11.17;;;10.07;;
10343;SDS011;5217;43.960;10.954;2023-02-13T02:55:45;9.33;;;8.43;;
10343;SDS011;5217;43.960;10.954;2023-02-13T02:58:20;8.30;;;7.60;;
10343;SDS011;5217;43.960;10.954;2023-02-13T03:01:10;8.70;;;7.80;;
10343;SDS011;5217;43.960;10.954;2023-02-13T03:03:59;7.43;;;6.73;;
10343;SDS011;5217;43.960;10.954;2023-02-13T03:06:47;7.53;;;6.83;;
10343;SDS011;5217;43.960;10.954;2023-02-13T03:09:21;7.20;;;6.60;;
10343;SDS011;5217;43.960;10.954;2023-02-13T03:12:10;7.03;;;6.33;;
10343;SDS011;5217;43.960;10.954;2023-02-13T03:15:02;6.87;;;6.23;;
10343;SDS011;5217;43.960;10.954;2023-02-13T03:17:31;6.67;;;6.03;;
10343;SDS011;5217;43.960;10.954;2023-02-13T03:20:35;5.97;;;5.40;;
10343;SDS011;5217;43.960;10.954;2023-02-13T03:23:34;6.23;;;5.63;;
10343;SDS011;5217;43.960;10.954;2023-02-13T03:26:20;5.60;;;5.10;;
10343;SDS011;5217;43.960;10.954;2023-02-13T03:29:12;5.50;;;5.00;;
10343;SDS011;5217;43.960;10.954;2023-02-13T03:32:06;4.80;;;4.40;;
10343;SDS011;5217;43.960;10.954;2023-02-13T03:34:40;5.33;;;4.87;;
10343;SDS011;5217;43.960;10.954;2023-02-13T03:37:34;5.30;;;4.80;;
10343;SDS011;5217;43.960;10.954;2023-02-13T03:40:25;5.00;;;4.60;;
10343;SDS011;5217;43.960;10.954;2023-02-13T03:43:00;4.90;;;4.50;;
10343;SDS011;5217;43.960;10.954;2023-02-13T03:45:35;4.33;;;3.93;;
10343;SDS011;5217;43.960;10.954;2023-02-13T03:48:24;4.50;;;4.10;;
10343;SDS011;5217;43.960;10.954;2023-02-13T03:51:15;4.27;;;3.87;;
10343;SDS011;5217;43.960;10.954;2023-02-13T03:53:49;4.10;;;3.80;;
10343;SDS011;5217;43.960;10.954;2023-02-13T03:56:23;4.10;;;3.70;;
10343;SDS011;5217;43.960;10.954;2023-02-13T03:59:15;4.30;;;3.90;;
10343;SDS011;5217;43.960;10.954;2023-02-13T04:01:50;4.07;;;3.67;;
10343;SDS011;5217;43.960;10.954;2023-02-13T04:04:27;5.07;;;4.30;;
10343;SDS011;5217;43.960;10.954;2023-02-13T04:07:02;3.93;;;3.57;;
10343;SDS011;5217;43.960;10.954;2023-02-13T04:09:34;3.97;;;3.67;;
10343;SDS011;5217;43.960;10.954;2023-02-13T04:12:11;4.00;;;3.60;;
10343;SDS011;5217;43.960;10.954;2023-02-13T04:14:45;3.97;;;3.67;;
10343;SDS011;5217;43.960;10.954;2023-02-13T04:17:18;4.17;;;3.47;;
10343;SDS011;5217;43.960;10.954;2023-02-13T04:19:51;4.30;;;3.33;;
10343;SDS011;5217;43.960;10.954;2023-02-13T04:22:20;3.97;;;3.67;;
10343;SDS011;5217;43.960;10.954;2023-02-13T04:24:49;3.90;;;3.60;;
10343;SDS011;5217;43.960;10.954;2023-02-13T04:27:19;3.53;;;3.23;;
10343;SDS011;5217;43.960;10.954;2023-02-13T04:29:48;3.30;;;3.00;;
10343;SDS011;5217;43.960;10.954;2023-02-13T04:32:16;4.00;;;3.70;;
10343;SDS011;5217;43.960;10.954;2023-02-13T04:34:45;4.10;;;3.70;;
10343;SDS011;5217;43.960;10.954;2023-02-13T04:37:14;3.83;;;3.53;;
10343;SDS011;5217;43.960;10.954;2023-02-13T04:39:42;4.70;;;3.70;;
10343;SDS011;5217;43.960;10.954;2023-02-13T04:42:11;3.60;;;3.30;;
10343;SDS011;5217;43.960;10.954;2023-02-13T04:44:42;3.30;;;3.10;;
10343;SDS011;5217;43.960;10.954;2023-02-13T04:47:10;3.27;;;2.97;;
10343;SDS011;5217;43.960;10.954;2023-02-13T04:49:39;3.30;;;3.00;;
10343;SDS011;5217;43.960;10.954;2023-02-13T04:52:08;3.60;;;3.30;;
10343;SDS011;5217;43.960;10.954;2023-02-13T04:54:37;3.30;;;3.00;;
10343;SDS011;5217;43.960;10.954;2023-02-13T04:57:05;3.03;;;2.83;;
10343;SDS011;5217;43.960;10.954;2023-02-13T04:59:34;3.27;;;2.97;;
10343;SDS011;5217;43.960;10.954;2023-02-13T05:02:03;3.63;;;3.30;;
10343;SDS011;5217;43.960;10.954;2023-02-13T05:04:32;3.20;;;3.00;;
10343;SDS011;5217;43.960;10.954;2023-02-13T05:07:00;3.03;;;2.80;;
10343;SDS011;5217;43.960;10.954;2023-02-13T05:09:29;3.10;;;2.80;;
10343;SDS011;5217;43.960;10.954;2023-02-13T05:11:58;4.03;;;3.20;;
10343;SDS011;5217;43.960;10.954;2023-02-13T05:14:26;3.67;;;3.37;;
10343;SDS011;5217;43.960;10.954;2023-02-13T05:16:55;4.10;;;3.20;;
10343;SDS011;5217;43.960;10.954;2023-02-13T05:19:24;2.97;;;2.77;;
10343;SDS011;5217;43.960;10.954;2023-02-13T05:21:53;3.97;;;3.57;;
10343;SDS011;5217;43.960;10.954;2023-02-13T05:24:38;4.53;;;3.80;;
10343;SDS011;5217;43.960;10.954;2023-02-13T05:27:08;3.60;;;3.30;;
10343;SDS011;5217;43.960;10.954;2023-02-13T05:29:36;3.70;;;3.40;;
10343;SDS011;5217;43.960;10.954;2023-02-13T05:32:05;3.77;;;3.47;;
10343;SDS011;5217;43.960;10.954;2023-02-13T05:34:35;3.87;;;3.43;;
10343;SDS011;5217;43.960;10.954;2023-02-13T05:37:03;4.00;;;3.70;;
10343;SDS011;5217;43.960;10.954;2023-02-13T05:39:31;4.47;;;4.07;;
10343;SDS011;5217;43.960;10.954;2023-02-13T05:41:59;4.00;;;3.70;;
10343;SDS011;5217;43.960;10.954;2023-02-13T05:44:30;4.07;;;3.70;;
10343;SDS011;5217;43.960;10.954;2023-02-13T05:46:58;4.70;;;4.03;;
10343;SDS011;5217;43.960;10.954;2023-02-13T05:49:26;4.63;;;4.10;;
10343;SDS011;5217;43.960;10.954;2023-02-13T05:51:56;4.97;;;4.47;;
10343;SDS011;5217;43.960;10.954;2023-02-13T05:54:25;5.20;;;4.70;;
10343;SDS011;5217;43.960;10.954;2023-02-13T05:56:53;4.70;;;3.93;;
10343;SDS011;5217;43.960;10.954;2023-02-13T05:59:21;4.33;;;3.93;;
10343;SDS011;5217;43.960;10.954;2023-02-13T06:01:49;4.10;;;3.70;;
10343;SDS011;5217;43.960;10.954;2023-02-13T06:04:19;5.23;;;4.73;;
10343;SDS011;5217;43.960;10.954;2023-02-13T06:06:47;5.17;;;4.50;;
10343;SDS011;5217;43.960;10.954;2023-02-13T06:09:17;5.50;;;4.97;;
10343;SDS011;5217;43.960;10.954;2023-02-13T06:11:45;5.03;;;4.53;;
10343;SDS011;5217;43.960;10.954;2023-02-13T06:14:14;4.50;;;4.10;;
10343;SDS011;5217;43.960;10.954;2023-02-13T06:16:42;5.03;;;4.53;;
10343;SDS011;5217;43.960;10.954;2023-02-13T06:19:10;5.27;;;4.80;;
10343;SDS011;5217;43.960;10.954;2023-02-13T06:21:39;5.30;;;4.80;;
10343;SDS011;5217;43.960;10.954;2023-02-13T06:24:07;6.00;;;5.07;;
10343;SDS011;5217;43.960;10.954;2023-02-13T06:26:37;5.80;;;5.30;;
10343;SDS011;5217;43.960;10.954;2023-02-13T06:29:05;6.00;;;5.50;;
10343;SDS011;5217;43.960;10.954;2023-02-13T06:31:35;5.60;;;5.10;;
10343;SDS011;5217;43.960;10.954;2023-02-13T06:34:03;5.10;;;4.63;;
10343;SDS011;5217;43.960;10.954;2023-02-13T06:36:31;5.03;;;4.53;;
10343;SDS011;5217;43.960;10.954;2023-02-13T06:39:00;5.47;;;4.97;;
10343;SDS011;5217;43.960;10.954;2023-02-13T06:41:28;5.93;;;5.43;;
10343;SDS011;5217;43.960;10.954;2023-02-13T06:43:58;6.67;;;6.03;;
10343;SDS011;5217;43.960;10.954;2023-02-13T06:46:26;6.67;;;6.00;;
10343;SDS011;5217;43.960;10.954;2023-02-13T06:48:55;6.57;;;5.97;;
10343;SDS011;5217;43.960;10.954;2023-02-13T06:51:23;5.87;;;5.37;;
10343;SDS011;5217;43.960;10.954;2023-02-13T06:53:51;5.77;;;5.27;;
10343;SDS011;5217;43.960;10.954;2023-02-13T06:56:20;5.10;;;4.60;;
10343;SDS011;5217;43.960;10.954;2023-02-13T06:58:48;5.80;;;5.20;;
10343;SDS011;5217;43.960;10.954;2023-02-13T07:01:18;5.83;;;5.23;;
10343;SDS011;5217;43.960;10.954;2023-02-13T07:03:47;5.27;;;4.77;;
10343;SDS011;5217;43.960;10.954;2023-02-13T07:06:16;5.30;;;4.80;;
10343;SDS011;5217;43.960;10.954;2023-02-13T07:08:45;5.40;;;4.60;;
10343;SDS011;5217;43.960;10.954;2023-02-13T07:11:17;5.17;;;4.67;;
10343;SDS011;5217;43.960;10.954;2023-02-13T07:13:45;5.50;;;5.00;;
10343;SDS011;5217;43.960;10.954;2023-02-13T07:16:14;5.10;;;4.60;;
10343;SDS011;5217;43.960;10.954;2023-02-13T07:18:44;5.50;;;4.87;;
10343;SDS011;5217;43.960;10.954;2023-02-13T07:21:12;11.50;;;9.30;;
10343;SDS011;5217;43.960;10.954;2023-02-13T07:23:41;14.70;;;13.20;;
10343;SDS011;5217;43.960;10.954;2023-02-13T07:26:09;14.57;;;13.03;;
10343;SDS011;5217;43.960;10.954;2023-02-13T07:28:37;12.50;;;11.20;;
10343;SDS011;5217;43.960;10.954;2023-02-13T07:31:06;11.10;;;10.00;;
10343;SDS011;5217;43.960;10.954;2023-02-13T07:33:34;9.17;;;8.23;;
10343;SDS011;5217;43.960;10.954;2023-02-13T07:36:04;8.27;;;7.47;;
10343;SDS011;5217;43.960;10.954;2023-02-13T07:38:33;7.40;;;6.63;;
10343;SDS011;5217;43.960;10.954;2023-02-13T07:41:02;6.47;;;5.83;;
10343;SDS011;5217;43.960;10.954;2023-02-13T07:43:30;6.70;;;6.03;;
10343;SDS011;5217;43.960;10.954;2023-02-13T07:46:00;6.30;;;5.70;;
10343;SDS011;5217;43.960;10.954;2023-02-13T07:48:29;6.00;;;5.40;;
10343;SDS011;5217;43.960;10.954;2023-02-13T07:50:58;6.77;;;5.90;;
10343;SDS011;5217;43.960;10.954;2023-02-13T07:53:29;8.03;;;6.87;;
10343;SDS011;5217;43.960;10.954;2023-02-13T07:55:57;8.07;;;7.00;;
10343;SDS011;5217;43.960;10.954;2023-02-13T07:58:25;7.97;;;6.40;;
10343;SDS011;5217;43.960;10.954;2023-02-13T08:00:54;7.10;;;6.00;;
10343;SDS011;5217;43.960;10.954;2023-02-13T08:03:22;5.63;;;5.13;;
10343;SDS011;5217;43.960;10.954;2023-02-13T08:05:50;5.80;;;5.20;;
10343;SDS011;5217;43.960;10.954;2023-02-13T08:08:18;5.67;;;5.00;;
10343;SDS011;5217;43.960;10.954;2023-02-13T08:10:48;5.73;;;5.17;;
10343;SDS011;5217;43.960;10.954;2023-02-13T08:13:34;5.93;;;5.43;;
10343;SDS011;5217;43.960;10.954;2023-02-13T08:16:03;6.20;;;5.60;;
10343;SDS011;5217;43.960;10.954;2023-02-13T08:18:31;6.17;;;5.57;;
10343;SDS011;5217;43.960;10.954;2023-02-13T08:21:00;6.17;;;5.57;;
10343;SDS011;5217;43.960;10.954;2023-02-13T08:23:29;5.80;;;5.20;;
10343;SDS011;5217;43.960;10.954;2023-02-13T08:25:59;6.20;;;5.50;;
10343;SDS011;5217;43.960;10.954;2023-02-13T08:28:28;6.10;;;5.57;;
10343;SDS011;5217;43.960;10.954;2023-02-13T08:30:57;6.67;;;6.07;;
10343;SDS011;5217;43.960;10.954;2023-02-13T08:33:25;6.30;;;5.70;;
10343;SDS011;5217;43.960;10.954;2023-02-13T08:35:53;7.40;;;6.70;;
10343;SDS011;5217;43.960;10.954;2023-02-13T08:38:22;6.93;;;6.20;;
10343;SDS011;5217;43.960;10.954;2023-02-13T08:40:51;7.07;;;6.37;;
10343;SDS011;5217;43.960;10.954;2023-02-13T08:43:24;7.03;;;6.33;;
10343;SDS011;5217;43.960;10.954;2023-02-13T08:45:53;7.77;;;6.17;;
10343;SDS011;5217;43.960;10.954;2023-02-13T08:48:25;6.90;;;6.30;;
10343;SDS011;5217;43.960;10.954;2023-02-13T08:50:53;6.37;;;5.77;;
10343;SDS011;5217;43.960;10.954;2023-02-13T08:53:22;6.43;;;5.83;;
10343;SDS011;5217;43.960;10.954;2023-02-13T08:55:51;7.10;;;6.03;;
10343;SDS011;5217;43.960;10.954;2023-02-13T08:58:20;7.80;;;6.07;;
10343;SDS011;5217;43.960;10.954;2023-02-13T09:00:50;7.03;;;6.27;;
10343;SDS011;5217;43.960;10.954;2023-02-13T09:03:18;6.27;;;5.60;;
10343;SDS011;5217;43.960;10.954;2023-02-13T09:05:47;7.07;;;6.37;;
10343;SDS011;5217;43.960;10.954;2023-02-13T09:08:15;7.00;;;6.30;;
10343;SDS011;5217;43.960;10.954;2023-02-13T09:10:44;7.27;;;6.57;;
10343;SDS011;5217;43.960;10.954;2023-02-13T09:13:12;6.73;;;6.10;;
10343;SDS011;5217;43.960;10.954;2023-02-13T09:15:40;6.40;;;5.80;;
10343;SDS011;5217;43.960;10.954;2023-02-13T09:18:10;8.27;;;6.33;;
10343;SDS011;5217;43.960;10.954;2023-02-13T09:20:39;7.70;;;6.40;;
10343;SDS011;5217;43.960;10.954;2023-02-13T09:23:07;6.97;;;6.27;;
10343;SDS011;5217;43.960;10.954;2023-02-13T09:25:36;6.73;;;6.13;;
10343;SDS011;5217;43.960;10.954;2023-02-13T09:28:04;7.00;;;6.30;;
10343;SDS011;5217;43.960;10.954;2023-02-13T09:30:32;6.70;;;5.97;;
10343;SDS011;5217;43.960;10.954;2023-02-13T09:33:01;6.00;;;5.50;;
10343;SDS011;5217;43.960;10.954;2023-02-13T09:35:30;6.23;;;5.63;;
10343;SDS011;5217;43.960;10.954;2023-02-13T09:37:59;6.23;;;5.60;;
10343;SDS011;5217;43.960;10.954;2023-02-13T09:40:28;6.80;;;6.10;;
10343;SDS011;5217;43.960;10.954;2023-02-13T09:43:03;6.50;;;5.90;;
10343;SDS011;5217;43.960;10.954;2023-02-13T09:45:34;6.40;;;5.80;;
10343;SDS011;5217;43.960;10.954;2023-02-13T09:48:04;5.83;;;5.23;;
10343;SDS011;5217;43.960;10.954;2023-02-13T09:50:37;8.23;;;6.00;;
10343;SDS011;5217;43.960;10.954;2023-02-13T09:53:05;5.77;;;5.27;;
10343;SDS011;5217;43.960;10.954;2023-02-13T09:55:34;7.50;;;6.60;;
10343;SDS011;5217;43.960;10.954;2023-02-13T09:58:14;6.50;;;5.70;;
10343;SDS011;5217;43.960;10.954;2023-02-13T10:00:47;6.40;;;5.70;;
10343;SDS011;5217;43.960;10.954;2023-02-13T10:03:21;6.57;;;5.97;;
10343;SDS011;5217;43.960;10.954;2023-02-13T10:05:59;5.40;;;4.90;;
10343;SDS011;5217;43.960;10.954;2023-02-13T10:08:38;5.07;;;4.57;;
10343;SDS011;5217;43.960;10.954;2023-02-13T10:11:23;5.90;;;4.90;;
10343;SDS011;5217;43.960;10.954;2023-02-13T10:14:04;6.07;;;4.60;;
10343;SDS011;5217;43.960;10.954;2023-02-13T10:16:39;4.95;;;4.47;;
10343;SDS011;5217;43.960;10.954;2023-02-13T10:19:13;5.38;;;4.07;;
10343;SDS011;5217;43.960;10.954;2023-02-13T10:21:52;4.50;;;3.90;;
10343;SDS011;5217;43.960;10.954;2023-02-13T10:24:26;4.65;;;4.25;;
10343;SDS011;5217;43.960;10.954;2023-02-13T10:26:59;7.55;;;5.32;;
10343;SDS011;5217;43.960;10.954;2023-02-13T10:29:35;6.30;;;5.20;;
10343;SDS011;5217;43.960;10.954;2023-02-13T10:32:27;6.32;;;5.05;;
10343;SDS011;5217;43.960;10.954;2023-02-13T10:35:02;6.40;;;5.38;;
10343;SDS011;5217;43.960;10.954;2023-02-13T10:37:38;7.85;;;5.15;;
10343;SDS011;5217;43.960;10.954;2023-02-13T10:40:08;5.10;;;4.50;;
10343;SDS011;5217;43.960;10.954;2023-02-13T10:42:39;5.15;;;4.65;;
10343;SDS011;5217;43.960;10.954;2023-02-13T10:45:24;5.65;;;4.78;;
10343;SDS011;5217;43.960;10.954;2023-02-13T10:48:09;5.75;;;5.13;;
10343;SDS011;5217;43.960;10.954;2023-02-13T10:50:49;7.35;;;5.22;;
10343;SDS011;5217;43.960;10.954;2023-02-13T10:53:29;5.63;;;4.88;;
10343;SDS011;5217;43.960;10.954;2023-02-13T10:56:20;5.53;;;5.00;;
10343;SDS011;5217;43.960;10.954;2023-02-13T10:58:54;6.97;;;5.25;;
10343;SDS011;5217;43.960;10.954;2023-02-13T11:01:35;6.68;;;5.63;;
10343;SDS011;5217;43.960;10.954;2023-02-13T11:04:09;5.10;;;4.60;;
10343;SDS011;5217;43.960;10.954;2023-02-13T11:06:40;7.68;;;5.32;;
10343;SDS011;5217;43.960;10.954;2023-02-13T11:09:14;5.93;;;5.32;;
10343;SDS011;5217;43.960;10.954;2023-02-13T11:11:42;6.40;;;5.63;;
10343;SDS011;5217;43.960;10.954;2023-02-13T11:14:12;6.05;;;5.45;;
10343;SDS011;5217;43.960;10.954;2023-02-13T11:16:46;6.35;;;5.63;;
10343;SDS011;5217;43.960;10.954;2023-02-13T11:19:23;8.15;;;5.85;;
10343;SDS011;5217;43.960;10.954;2023-02-13T11:21:57;6.68;;;6.00;;
10343;SDS011;5217;43.960;10.954;2023-02-13T11:24:29;10.10;;;7.32;;
10343;SDS011;5217;43.960;10.954;2023-02-13T11:26:59;8.73;;;6.53;;
10343;SDS011;5217;43.960;10.954;2023-02-13T11:29:34;8.30;;;6.30;;
10343;SDS011;5217;43.960;10.954;2023-02-13T11:32:15;7.10;;;6.40;;
10343;SDS011;5217;43.960;10.954;2023-02-13T11:34:49;6.82;;;5.50;;
10343;SDS011;5217;43.960;10.954;2023-02-13T11:37:21;7.75;;;5.88;;
10343;SDS011;5217;43.960;10.954;2023-02-13T11:39:53;7.03;;;6.32;;
10343;SDS011;5217;43.960;10.954;2023-02-13T11:42:27;6.10;;;5.50;;
10343;SDS011;5217;43.960;10.954;2023-02-13T11:44:58;6.68;;;4.80;;
10343;SDS011;5217;43.960;10.954;2023-02-13T11:47:33;6.43;;;4.75;;
10343;SDS011;5217;43.960;10.954;2023-02-13T11:50:04;5.20;;;4.60;;
10343;SDS011;5217;43.960;10.954;2023-02-13T11:52:51;5.93;;;4.75;;
10343;SDS011;5217;43.960;10.954;2023-02-13T11:55:27;4.32;;;3.92;;
10343;SDS011;5217;43.960;10.954;2023-02-13T11:57:58;4.80;;;4.30;;
10343;SDS011;5217;43.960;10.954;2023-02-13T12:00:29;3.63;;;3.33;;
10343;SDS011;5217;43.960;10.954;2023-02-13T12:03:13;4.63;;;3.90;;
10343;SDS011;5217;43.960;10.954;2023-02-13T12:06:01;5.45;;;4.57;;
10343;SDS011;5217;43.960;10.954;2023-02-13T12:08:32;4.60;;;4.20;;
10343;SDS011;5217;43.960;10.954;2023-02-13T12:11:05;4.45;;;4.00;;
10343;SDS011;5217;43.960;10.954;2023-02-13T12:13:42;4.88;;;3.60;;
10343;SDS011;5217;43.960;10.954;2023-02-13T12:16:14;4.07;;;3.67;;
10343;SDS011;5217;43.960;10.954;2023-02-13T12:18:52;4.20;;;3.70;;
10343;SDS011;5217;43.960;10.954;2023-02-13T12:21:27;4.07;;;3.47;;
10343;SDS011;5217;43.960;10.954;2023-02-13T12:24:13;4.55;;;3.97;;
10343;SDS011;5217;43.960;10.954;2023-02-13T12:26:50;4.18;;;3.78;;
10343;SDS011;5217;43.960;10.954;2023-02-13T12:29:32;4.25;;;3.70;;
10343;SDS011;5217;43.960;10.954;2023-02-13T12:32:16;3.83;;;3.35;;
10343;SDS011;5217;43.960;10.954;2023-02-13T12:34:52;4.28;;;3.88;;
10343;SDS011;5217;43.960;10.954;2023-02-13T12:37:49;4.10;;;3.70;;
10343;SDS011;5217;43.960;10.954;2023-02-13T12:40:36;4.32;;;3.92;;
10343;SDS011;5217;43.960;10.954;2023-02-13T12:43:24;5.05;;;4.20;;
10343;SDS011;5217;43.960;10.954;2023-02-13T12:46:05;4.95;;;4.45;;
10343;SDS011;5217;43.960;10.954;2023-02-13T12:48:40;4.28;;;3.88;;
10343;SDS011;5217;43.960;10.954;2023-02-13T12:51:19;6.55;;;4.22;;
10343;SDS011;5217;43.960;10.954;2023-02-13T12:54:06;4.10;;;3.58;;
10343;SDS011;5217;43.960;10.954;2023-02-13T12:56:56;3.80;;;3.45;;
10343;SDS011;5217;43.960;10.954;2023-02-13T12:59:39;3.90;;;3.58;;
10343;SDS011;5217;43.960;10.954;2023-02-13T13:05:26;5.07;;;3.63;;
10343;SDS011;5217;43.960;10.954;2023-02-13T13:08:17;3.95;;;3.45;;
10343;SDS011;5217;43.960;10.954;2023-02-13T13:11:03;3.80;;;3.40;;
10343;SDS011;5217;43.960;10.954;2023-02-13T13:13:43;3.85;;;3.42;;
10343;SDS011;5217;43.960;10.954;2023-02-13T13:16:23;4.03;;;3.60;;
10343;SDS011;5217;43.960;10.954;2023-02-13T13:19:02;3.70;;;3.35;;
10343;SDS011;5217;43.960;10.954;2023-02-13T13:21:38;4.32;;;3.53;;
10343;SDS011;5217;43.960;10.954;2023-02-13T13:24:22;4.07;;;3.67;;
10343;SDS011;5217;43.960;10.954;2023-02-13T13:26:57;3.75;;;3.35;;
10343;SDS011;5217;43.960;10.954;2023-02-13T13:29:28;4.78;;;3.72;;
10343;SDS011;5217;43.960;10.954;2023-02-13T13:32:04;3.83;;;3.40;;
10343;SDS011;5217;43.960;10.954;2023-02-13T13:34:35;4.68;;;3.38;;
10343;SDS011;5217;43.960;10.954;2023-02-13T13:37:06;4.70;;;3.60;;
10343;SDS011;5217;43.960;10.954;2023-02-13T13:39:42;5.35;;;3.78;;
10343;SDS011;5217;43.960;10.954;2023-02-13T13:42:16;4.57;;;3.83;;
10343;SDS011;5217;43.960;10.954;2023-02-13T13:44:58;4.47;;;3.63;;
10343;SDS011;5217;43.960;10.954;2023-02-13T13:47:44;4.32;;;3.47;;
10343;SDS011;5217;43.960;10.954;2023-02-13T13:50:31;4.30;;;3.60;;
10343;SDS011;5217;43.960;10.954;2023-02-13T13:53:09;5.75;;;4.57;;
10343;SDS011;5217;43.960;10.954;2023-02-13T13:56:02;4.97;;;3.65;;
10343;SDS011;5217;43.960;10.954;2023-02-13T13:58:39;3.63;;;3.20;;
10343;SDS011;5217;43.960;10.954;2023-02-13T14:01:16;4.05;;;3.63;;
10343;SDS011;5217;43.960;10.954;2023-02-13T14:03:51;3.85;;;3.33;;
10343;SDS011;5217;43.960;10.954;2023-02-13T14:06:21;3.92;;;3.13;;
10343;SDS011;5217;43.960;10.954;2023-02-13T14:11:31;4.32;;;3.47;;
10343;SDS011;5217;43.960;10.954;2023-02-13T14:17:08;3.15;;;2.90;;
10343;SDS011;5217;43.960;10.954;2023-02-13T14:19:44;3.72;;;3.40;;
10343;SDS011;5217;43.960;10.954;2023-02-13T14:22:25;3.60;;;3.30;;
10343;SDS011;5217;43.960;10.954;2023-02-13T14:25:00;8.82;;;3.50;;
10343;SDS011;5217;43.960;10.954;2023-02-13T14:27:32;6.60;;;3.20;;
10343;SDS011;5217;43.960;10.954;2023-02-13T14:30:03;5.38;;;3.22;;
10343;SDS011;5217;43.960;10.954;2023-02-13T14:32:34;14.02;;;3.80;;
10343;SDS011;5217;43.960;10.954;2023-02-13T14:35:14;8.38;;;3.53;;
10343;SDS011;5217;43.960;10.954;2023-02-13T14:37:48;6.85;;;6.15;;
10343;SDS011;5217;43.960;10.954;2023-02-13T14:43:27;5.03;;;4.22;;
10343;SDS011;5217;43.960;10.954;2023-02-13T14:46:00;3.47;;;3.20;;
10343;SDS011;5217;43.960;10.954;2023-02-13T14:48:36;3.70;;;3.30;;
10343;SDS011;5217;43.960;10.954;2023-02-13T14:51:19;4.32;;;3.58;;
10343;SDS011;5217;43.960;10.954;2023-02-13T14:53:55;2.65;;;2.42;;
10343;SDS011;5217;43.960;10.954;2023-02-13T14:56:28;3.10;;;2.78;;
10343;SDS011;5217;43.960;10.954;2023-02-13T14:59:00;3.03;;;2.72;;
10343;SDS011;5217;43.960;10.954;2023-02-13T15:01:38;3.72;;;2.85;;
10343;SDS011;5217;43.960;10.954;2023-02-13T15:04:14;3.20;;;2.75;;
10343;SDS011;5217;43.960;10.954;2023-02-13T15:06:49;2.83;;;2.60;;
10343;SDS011;5217;43.960;10.954;2023-02-13T15:09:23;2.83;;;2.60;;
10343;SDS011;5217;43.960;10.954;2023-02-13T15:11:57;3.80;;;2.83;;
10343;SDS011;5217;43.960;10.954;2023-02-13T15:14:30;2.80;;;2.60;;
10343;SDS011;5217;43.960;10.954;2023-02-13T15:17:07;2.72;;;2.53;;
10343;SDS011;5217;43.960;10.954;2023-02-13T15:19:42;2.97;;;2.67;;
10343;SDS011;5217;43.960;10.954;2023-02-13T15:22:17;3.30;;;3.00;;
10343;SDS011;5217;43.960;10.954;2023-02-13T15:24:47;4.03;;;3.33;;
10343;SDS011;5217;43.960;10.954;2023-02-13T15:27:17;3.67;;;3.08;;
10343;SDS011;5217;43.960;10.954;2023-02-13T15:29:58;4.57;;;4.07;;
10343;SDS011;5217;43.960;10.954;2023-02-13T15:32:30;4.70;;;4.22;;
10343;SDS011;5217;43.960;10.954;2023-02-13T15:34:59;3.70;;;3.38;;
10343;SDS011;5217;43.960;10.954;2023-02-13T15:37:30;3.88;;;3.40;;
10343;SDS011;5217;43.960;10.954;2023-02-13T15:40:15;3.15;;;2.85;;
10343;SDS011;5217;43.960;10.954;2023-02-13T15:42:48;3.53;;;3.03;;
10343;SDS011;5217;43.960;10.954;2023-02-13T15:45:17;2.90;;;2.70;;
10343;SDS011;5217;43.960;10.954;2023-02-13T15:47:47;3.55;;;2.80;;